sensor_id;sensor_type;location;lat;lon;timestamp;pressure;altitude;pressure_sealevel;temperature;humidity
3206;BME280;1615;53.602;11.418;2023-04-29T00:00:30;100627.31;;;10.16;100.00
3206;BME280;1615;53.602;11.418;2023-04-29T00:02:56;100652.22;;;10.38;100.00
3206;BME280;1615;53.602;11.418;2023-04-29T00:05:21;100653.75;;;10.25;100.00
3206;BME280;1615;53.602;11.418;2023-04-29T00:07:46;100654.16;;;10.19;100.00
3206;BME280;1615;53.602;11.418;2023-04-29T00:10:12;100650.50;;;10.23;100.00
3206;BME280;1615;53.602;11.418;2023-04-29T00:12:39;100631.25;;;10.10;100.00
3206;BME280;1615;53.602;11.418;2023-04-29T00:15:05;100646.88;;;10.28;100.00
3206;BME280;1615;53.602;11.418;2023-04-29T00:17:31;100655.53;;;10.16;100.00
3206;BME280;1615;53.602;11.418;2023-04-29T00:19:56;100648.06;;;10.22;100.00
3206;BME280;1615;53.602;11.418;2023-04-29T00:22:21;100643.19;;;10.19;100.00
3206;BME280;1615;53.602;11.418;2023-04-29T00:24:47;100646.44;;;10.21;100.00
3206;BME280;1615;53.602;11.418;2023-04-29T00:27:12;100644.59;;;10.16;100.00
3206;BME280;1615;53.602;11.418;2023-04-29T00:29:37;100627.53;;;9.96;100.00
3206;BME280;1615;53.602;11.418;2023-04-29T00:32:03;100642.25;;;10.05;100.00
3206;BME280;1615;53.602;11.418;2023-04-29T00:34:29;100591.22;;;9.67;100.00
3206;BME280;1615;53.602;11.418;2023-04-29T00:36:54;100644.47;;;10.03;100.00
3206;BME280;1615;53.602;11.418;2023-04-29T00:39:19;100636.53;;;10.01;100.00
3206;BME280;1615;53.602;11.418;2023-04-29T00:41:47;100580.28;;;9.67;100.00
3206;BME280;1615;53.602;11.418;2023-04-29T00:44:12;100621.03;;;9.92;100.00
3206;BME280;1615;53.602;11.418;2023-04-29T00:46:37;100650.28;;;9.96;100.00
3206;BME280;1615;53.602;11.418;2023-04-29T00:49:03;100608.09;;;9.74;100.00
3206;BME280;1615;53.602;11.418;2023-04-29T00:51:28;100565.00;;;9.37;100.00
3206;BME280;1615;53.602;11.418;2023-04-29T00:53:54;100641.91;;;9.88;100.00
3206;BME280;1615;53.602;11.418;2023-04-29T00:56:19;100660.50;;;9.86;100.00
3206;BME280;1615;53.602;11.418;2023-04-29T00:58:45;100662.16;;;9.87;100.00
3206;BME280;1615;53.602;11.418;2023-04-29T01:01:15;100654.59;;;9.79;100.00
3206;BME280;1615;53.602;11.418;2023-04-29T01:03:41;100659.44;;;9.87;100.00
3206;BME280;1615;53.602;11.418;2023-04-29T01:14:37;100533.63;;;9.06;100.00
3206;BME280;1615;53.602;11.418;2023-04-29T01:17:10;100657.59;;;9.77;100.00
3206;BME280;1615;53.602;11.418;2023-04-29T01:19:54;100661.63;;;9.85;100.00
3206;BME280;1615;53.602;11.418;2023-04-29T01:22:21;100659.38;;;9.92;100.00
3206;BME280;1615;53.602;11.418;2023-04-29T01:24:47;100685.09;;;9.91;100.00
3206;BME280;1615;53.602;11.418;2023-04-29T01:27:30;100662.41;;;9.90;100.00
3206;BME280;1615;53.602;11.418;2023-04-29T01:30:13;100652.31;;;9.86;100.00
3206;BME280;1615;53.602;11.418;2023-04-29T01:38:00;100658.66;;;9.81;100.00
3206;BME280;1615;53.602;11.418;2023-04-29T01:40:37;100669.84;;;9.85;100.00
3206;BME280;1615;53.602;11.418;2023-04-29T01:43:07;100661.63;;;9.85;100.00
3206;BME280;1615;53.602;11.418;2023-04-29T01:45:37;100255.00;;;7.35;100.00
3206;BME280;1615;53.602;11.418;2023-04-29T01:48:05;100668.44;;;9.87;100.00
3206;BME280;1615;53.602;11.418;2023-04-29T01:50:31;100674.25;;;9.81;100.00
3206;BME280;1615;53.602;11.418;2023-04-29T01:52:56;100671.47;;;9.86;100.00
3206;BME280;1615;53.602;11.418;2023-04-29T01:55:22;100668.44;;;9.87;100.00
3206;BME280;1615;53.602;11.418;2023-04-29T01:57:48;100647.59;;;9.68;100.00
3206;BME280;1615;53.602;11.418;2023-04-29T02:00:13;100662.56;;;9.75;100.00
3206;BME280;1615;53.602;11.418;2023-04-29T02:02:38;100661.22;;;9.73;100.00
3206;BME280;1615;53.602;11.418;2023-04-29T02:05:04;100662.06;;;9.73;100.00
3206;BME280;1615;53.602;11.418;2023-04-29T02:07:29;100668.03;;;9.75;100.00
3206;BME280;1615;53.602;11.418;2023-04-29T02:09:55;100674.53;;;9.84;100.00
3206;BME280;1615;53.602;11.418;2023-04-29T02:12:20;100677.81;;;9.81;100.00
3206;BME280;1615;53.602;11.418;2023-04-29T02:14:45;100676.59;;;9.92;100.00
3206;BME280;1615;53.602;11.418;2023-04-29T02:17:12;100682.41;;;9.86;100.00
3206;BME280;1615;53.602;11.418;2023-04-29T02:19:37;100692.34;;;9.82;100.00
3206;BME280;1615;53.602;11.418;2023-04-29T02:22:03;100691.19;;;9.88;100.00
3206;BME280;1615;53.602;11.418;2023-04-29T02:24:28;100693.31;;;9.91;100.00
3206;BME280;1615;53.602;11.418;2023-04-29T02:26:53;100696.84;;;9.96;100.00
3206;BME280;1615;53.602;11.418;2023-04-29T02:29:19;100697.13;;;9.95;100.00
3206;BME280;1615;53.602;11.418;2023-04-29T02:31:44;100696.53;;;9.98;100.00
3206;BME280;1615;53.602;11.418;2023-04-29T02:34:09;100768.19;;;10.10;100.00
3206;BME280;1615;53.602;11.418;2023-04-29T02:36:35;100701.34;;;10.11;100.00
3206;BME280;1615;53.602;11.418;2023-04-29T02:39:00;100699.66;;;10.15;100.00
3206;BME280;1615;53.602;11.418;2023-04-29T02:41:26;100703.47;;;10.19;100.00
3206;BME280;1615;53.602;11.418;2023-04-29T02:43:51;100701.22;;;10.21;100.00
3206;BME280;1615;53.602;11.418;2023-04-29T02:46:17;100727.44;;;10.27;100.00
3206;BME280;1615;53.602;11.418;2023-04-29T02:48:43;100698.66;;;10.29;100.00
3206;BME280;1615;53.602;11.418;2023-04-29T02:51:08;100639.09;;;9.93;100.00
3206;BME280;1615;53.602;11.418;2023-04-29T02:53:34;100706.09;;;10.47;100.00
3206;BME280;1615;53.602;11.418;2023-04-29T02:55:59;100701.88;;;10.55;100.00
3206;BME280;1615;53.602;11.418;2023-04-29T02:58:25;100671.41;;;10.38;100.00
3206;BME280;1615;53.602;11.418;2023-04-29T03:00:50;100707.56;;;10.58;100.00
3206;BME280;1615;53.602;11.418;2023-04-29T03:03:16;100650.00;;;10.21;100.00
3206;BME280;1615;53.602;11.418;2023-04-29T03:05:41;100673.94;;;10.34;100.00
3206;BME280;1615;53.602;11.418;2023-04-29T03:08:06;100706.34;;;10.51;100.00
3206;BME280;1615;53.602;11.418;2023-04-29T03:10:33;100706.69;;;10.44;100.00
3206;BME280;1615;53.602;11.418;2023-04-29T03:12:58;100711.56;;;10.47;100.00
3206;BME280;1615;53.602;11.418;2023-04-29T03:15:24;100714.31;;;10.47;100.00
3206;BME280;1615;53.602;11.418;2023-04-29T03:17:49;100725.72;;;10.36;100.00
3206;BME280;1615;53.602;11.418;2023-04-29T03:20:15;100730.00;;;10.42;100.00
3206;BME280;1615;53.602;11.418;2023-04-29T03:22:40;100719.00;;;10.47;100.00
3206;BME280;1615;53.602;11.418;2023-04-29T03:25:05;100724.19;;;10.48;100.00
3206;BME280;1615;53.602;11.418;2023-04-29T03:27:31;100720.78;;;10.56;100.00
3206;BME280;1615;53.602;11.418;2023-04-29T03:29:56;100692.00;;;10.35;100.00
3206;BME280;1615;53.602;11.418;2023-04-29T03:32:22;100726.59;;;10.50;100.00
3206;BME280;1615;53.602;11.418;2023-04-29T03:34:47;100726.53;;;10.55;100.00
3206;BME280;1615;53.602;11.418;2023-04-29T03:37:13;100723.81;;;10.55;100.00
3206;BME280;1615;53.602;11.418;2023-04-29T03:39:40;100726.19;;;10.61;100.00
3206;BME280;1615;53.602;11.418;2023-04-29T03:42:05;100721.00;;;10.60;100.00
3206;BME280;1615;53.602;11.418;2023-04-29T03:44:31;100725.97;;;10.58;100.00
3206;BME280;1615;53.602;11.418;2023-04-29T03:46:56;100711.88;;;10.46;100.00
3206;BME280;1615;53.602;11.418;2023-04-29T03:49:21;100722.19;;;10.54;100.00
3206;BME280;1615;53.602;11.418;2023-04-29T03:51:47;100630.34;;;9.91;100.00
3206;BME280;1615;53.602;11.418;2023-04-29T03:54:13;100643.25;;;10.14;100.00
3206;BME280;1615;53.602;11.418;2023-04-29T03:56:38;100703.28;;;10.52;100.00
3206;BME280;1615;53.602;11.418;2023-04-29T03:59:04;100724.41;;;10.52;100.00
3206;BME280;1615;53.602;11.418;2023-04-29T04:01:29;100742.28;;;10.68;100.00
3206;BME280;1615;53.602;11.418;2023-04-29T04:03:54;100736.03;;;10.62;100.00
3206;BME280;1615;53.602;11.418;2023-04-29T04:06:20;100769.16;;;10.66;100.00
3206;BME280;1615;53.602;11.418;2023-04-29T04:08:46;100754.94;;;10.64;100.00
3206;BME280;1615;53.602;11.418;2023-04-29T04:11:11;100748.69;;;10.58;100.00
3206;BME280;1615;53.602;11.418;2023-04-29T04:13:40;100769.06;;;10.52;100.00
3206;BME280;1615;53.602;11.418;2023-04-29T04:16:06;100769.59;;;10.54;100.00
3206;BME280;1615;53.602;11.418;2023-04-29T04:18:31;100780.84;;;10.29;100.00
3206;BME280;1615;53.602;11.418;2023-04-29T04:20:57;100789.34;;;10.28;100.00
3206;BME280;1615;53.602;11.418;2023-04-29T04:23:22;100788.91;;;10.21;100.00
3206;BME280;1615;53.602;11.418;2023-04-29T04:25:48;100779.44;;;10.32;100.00
3206;BME280;1615;53.602;11.418;2023-04-29T04:28:13;100784.03;;;10.36;100.00
3206;BME280;1615;53.602;11.418;2023-04-29T04:30:40;100781.69;;;10.30;100.00
3206;BME280;1615;53.602;11.418;2023-04-29T04:33:05;100804.06;;;10.37;100.00
3206;BME280;1615;53.602;11.418;2023-04-29T04:35:31;100794.50;;;10.34;100.00
3206;BME280;1615;53.602;11.418;2023-04-29T04:37:56;100796.41;;;10.34;100.00
3206;BME280;1615;53.602;11.418;2023-04-29T04:40:22;100797.63;;;10.23;100.00
3206;BME280;1615;53.602;11.418;2023-04-29T04:42:48;100813.22;;;10.27;100.00
3206;BME280;1615;53.602;11.418;2023-04-29T04:45:13;100805.16;;;10.36;100.00
3206;BME280;1615;53.602;11.418;2023-04-29T04:47:41;100791.56;;;10.26;100.00
3206;BME280;1615;53.602;11.418;2023-04-29T04:50:07;100811.56;;;10.50;100.00
3206;BME280;1615;53.602;11.418;2023-04-29T04:52:33;100815.91;;;10.56;100.00
3206;BME280;1615;53.602;11.418;2023-04-29T04:54:59;100812.13;;;10.52;100.00
3206;BME280;1615;53.602;11.418;2023-04-29T04:57:24;100821.19;;;10.47;100.00
3206;BME280;1615;53.602;11.418;2023-04-29T04:59:50;100818.44;;;10.47;100.00
3206;BME280;1615;53.602;11.418;2023-04-29T05:02:15;100816.03;;;10.46;100.00
3206;BME280;1615;53.602;11.418;2023-04-29T05:04:41;100814.91;;;10.47;100.00
3206;BME280;1615;53.602;11.418;2023-04-29T05:07:06;100820.41;;;10.47;100.00
3206;BME280;1615;53.602;11.418;2023-04-29T05:09:31;100824.34;;;10.36;100.00
3206;BME280;1615;53.602;11.418;2023-04-29T05:11:57;100825.28;;;10.50;100.00
3206;BME280;1615;53.602;11.418;2023-04-29T05:14:24;100806.97;;;10.45;100.00
3206;BME280;1615;53.602;11.418;2023-04-29T05:16:49;100832.81;;;10.63;100.00
3206;BME280;1615;53.602;11.418;2023-04-29T05:19:15;100829.72;;;10.69;100.00
3206;BME280;1615;53.602;11.418;2023-04-29T05:21:41;100834.50;;;10.59;100.00
3206;BME280;1615;53.602;11.418;2023-04-29T05:24:06;100842.44;;;10.60;100.00
3206;BME280;1615;53.602;11.418;2023-04-29T05:26:31;100848.09;;;10.69;100.00
3206;BME280;1615;53.602;11.418;2023-04-29T05:28:56;100848.88;;;10.51;100.00
3206;BME280;1615;53.602;11.418;2023-04-29T05:31:22;100855.38;;;10.55;100.00
3206;BME280;1615;53.602;11.418;2023-04-29T05:33:47;100865.53;;;10.54;100.00
3206;BME280;1615;53.602;11.418;2023-04-29T05:36:13;100870.09;;;10.35;100.00
3206;BME280;1615;53.602;11.418;2023-04-29T05:38:38;100867.41;;;10.59;100.00
3206;BME280;1615;53.602;11.418;2023-04-29T05:41:03;100874.34;;;10.51;100.00
3206;BME280;1615;53.602;11.418;2023-04-29T05:43:29;100861.88;;;10.35;100.00
3206;BME280;1615;53.602;11.418;2023-04-29T05:45:54;100879.31;;;10.73;100.00
3206;BME280;1615;53.602;11.418;2023-04-29T05:48:20;100845.41;;;10.64;100.00
3206;BME280;1615;53.602;11.418;2023-04-29T05:50:46;100877.97;;;10.94;100.00
3206;BME280;1615;53.602;11.418;2023-04-29T05:53:12;100764.28;;;10.16;100.00
3206;BME280;1615;53.602;11.418;2023-04-29T05:55:38;100890.63;;;10.90;100.00
3206;BME280;1615;53.602;11.418;2023-04-29T05:58:04;100890.44;;;11.05;100.00
3206;BME280;1615;53.602;11.418;2023-04-29T06:00:29;100885.47;;;11.07;100.00
3206;BME280;1615;53.602;11.418;2023-04-29T06:02:55;100892.78;;;11.35;100.00
3206;BME280;1615;53.602;11.418;2023-04-29T06:05:21;100819.00;;;10.73;100.00
3206;BME280;1615;53.602;11.418;2023-04-29T06:07:46;100906.00;;;11.33;100.00
3206;BME280;1615;53.602;11.418;2023-04-29T06:10:12;100898.50;;;11.57;100.00
3206;BME280;1615;53.602;11.418;2023-04-29T06:12:37;100900.22;;;11.53;100.00
3206;BME280;1615;53.602;11.418;2023-04-29T06:15:02;100903.03;;;11.48;100.00
3206;BME280;1615;53.602;11.418;2023-04-29T06:17:28;100896.56;;;11.39;100.00
3206;BME280;1615;53.602;11.418;2023-04-29T06:19:54;100922.25;;;11.48;100.00
3206;BME280;1615;53.602;11.418;2023-04-29T06:22:20;100922.09;;;11.63;100.00
3206;BME280;1615;53.602;11.418;2023-04-29T06:24:46;100925.13;;;11.61;100.00
3206;BME280;1615;53.602;11.418;2023-04-29T06:27:13;100867.13;;;11.26;100.00
3206;BME280;1615;53.602;11.418;2023-04-29T06:29:39;100921.38;;;11.52;100.00
3206;BME280;1615;53.602;11.418;2023-04-29T06:32:04;100946.00;;;11.57;100.00
3206;BME280;1615;53.602;11.418;2023-04-29T06:34:29;100930.03;;;11.41;100.00
3206;BME280;1615;53.602;11.418;2023-04-29T06:36:55;100922.97;;;11.35;100.00
3206;BME280;1615;53.602;11.418;2023-04-29T06:39:20;100934.09;;;11.43;100.00
3206;BME280;1615;53.602;11.418;2023-04-29T06:41:46;100924.25;;;11.42;100.00
3206;BME280;1615;53.602;11.418;2023-04-29T06:44:11;100935.03;;;11.57;100.00
3206;BME280;1615;53.602;11.418;2023-04-29T06:46:36;100918.88;;;11.74;100.00
3206;BME280;1615;53.602;11.418;2023-04-29T06:49:03;100936.31;;;12.02;100.00
3206;BME280;1615;53.602;11.418;2023-04-29T06:51:28;100945.25;;;12.26;100.00
3206;BME280;1615;53.602;11.418;2023-04-29T06:53:54;100828.31;;;11.51;100.00
3206;BME280;1615;53.602;11.418;2023-04-29T06:56:19;100947.59;;;12.51;100.00
3206;BME280;1615;53.602;11.418;2023-04-29T06:58:45;100941.59;;;12.49;100.00
3206;BME280;1615;53.602;11.418;2023-04-29T07:01:10;100938.63;;;12.45;100.00
3206;BME280;1615;53.602;11.418;2023-04-29T07:03:35;100877.34;;;12.13;100.00
3206;BME280;1615;53.602;11.418;2023-04-29T07:06:01;100960.31;;;12.47;100.00
3206;BME280;1615;53.602;11.418;2023-04-29T07:08:26;100959.34;;;12.56;100.00
3206;BME280;1615;53.602;11.418;2023-04-29T07:10:56;100966.38;;;12.62;100.00
3206;BME280;1615;53.602;11.418;2023-04-29T07:13:22;100982.13;;;12.57;100.00
3206;BME280;1615;53.602;11.418;2023-04-29T07:15:47;100975.78;;;12.43;100.00
3206;BME280;1615;53.602;11.418;2023-04-29T07:18:13;100975.88;;;12.38;100.00
3206;BME280;1615;53.602;11.418;2023-04-29T07:20:38;100971.97;;;12.57;100.00
3206;BME280;1615;53.602;11.418;2023-04-29T07:23:03;100961.97;;;12.48;100.00
3206;BME280;1615;53.602;11.418;2023-04-29T07:25:29;100976.97;;;12.69;100.00
3206;BME280;1615;53.602;11.418;2023-04-29T07:27:55;100900.59;;;12.02;100.00
3206;BME280;1615;53.602;11.418;2023-04-29T07:30:21;100982.19;;;12.84;100.00
3206;BME280;1615;53.602;11.418;2023-04-29T07:32:47;100986.91;;;12.83;100.00
3206;BME280;1615;53.602;11.418;2023-04-29T07:35:12;100988.59;;;12.98;100.00
3206;BME280;1615;53.602;11.418;2023-04-29T07:37:38;101001.16;;;13.17;100.00
3206;BME280;1615;53.602;11.418;2023-04-29T07:40:03;100999.00;;;13.14;100.00
3206;BME280;1615;53.602;11.418;2023-04-29T07:42:29;101001.44;;;13.02;100.00
3206;BME280;1615;53.602;11.418;2023-04-29T07:44:54;101004.41;;;13.19;100.00
3206;BME280;1615;53.602;11.418;2023-04-29T07:47:20;100968.69;;;13.01;100.00
3206;BME280;1615;53.602;11.418;2023-04-29T07:49:45;101015.41;;;13.06;100.00
3206;BME280;1615;53.602;11.418;2023-04-29T07:52:10;100974.13;;;12.74;100.00
3206;BME280;1615;53.602;11.418;2023-04-29T07:54:36;101011.94;;;13.00;100.00
3206;BME280;1615;53.602;11.418;2023-04-29T07:57:01;100985.34;;;12.96;100.00
3206;BME280;1615;53.602;11.418;2023-04-29T07:59:31;101015.84;;;13.40;100.00
3206;BME280;1615;53.602;11.418;2023-04-29T08:01:57;101020.63;;;13.21;100.00
3206;BME280;1615;53.602;11.418;2023-04-29T08:04:22;101027.75;;;13.22;100.00
3206;BME280;1615;53.602;11.418;2023-04-29T08:06:48;101026.75;;;13.18;100.00
3206;BME280;1615;53.602;11.418;2023-04-29T08:09:14;101026.13;;;13.21;100.00
3206;BME280;1615;53.602;11.418;2023-04-29T08:11:40;101035.19;;;13.08;100.00
3206;BME280;1615;53.602;11.418;2023-04-29T08:14:05;101040.50;;;13.04;100.00
3206;BME280;1615;53.602;11.418;2023-04-29T08:16:31;100902.88;;;12.45;100.00
3206;BME280;1615;53.602;11.418;2023-04-29T08:18:56;101046.16;;;13.40;100.00
3206;BME280;1615;53.602;11.418;2023-04-29T08:21:22;101030.41;;;13.27;100.00
3206;BME280;1615;53.602;11.418;2023-04-29T08:23:47;101035.72;;;13.50;100.00
3206;BME280;1615;53.602;11.418;2023-04-29T08:26:13;101043.91;;;13.42;100.00
3206;BME280;1615;53.602;11.418;2023-04-29T08:28:38;101044.09;;;13.59;100.00
3206;BME280;1615;53.602;11.418;2023-04-29T08:31:04;101056.97;;;13.77;100.00
3206;BME280;1615;53.602;11.418;2023-04-29T08:33:35;101050.31;;;13.91;100.00
3206;BME280;1615;53.602;11.418;2023-04-29T08:36:00;100998.59;;;13.61;100.00
3206;BME280;1615;53.602;11.418;2023-04-29T08:38:27;101062.03;;;14.24;100.00
3206;BME280;1615;53.602;11.418;2023-04-29T08:40:53;101034.19;;;13.85;100.00
3206;BME280;1615;53.602;11.418;2023-04-29T08:43:19;101087.56;;;14.02;100.00
3206;BME280;1615;53.602;11.418;2023-04-29T08:45:47;101084.06;;;13.97;100.00
3206;BME280;1615;53.602;11.418;2023-04-29T08:48:13;101043.38;;;13.94;100.00
3206;BME280;1615;53.602;11.418;2023-04-29T08:50:40;101073.44;;;14.31;100.00
3206;BME280;1615;53.602;11.418;2023-04-29T08:53:11;101091.34;;;14.06;100.00
3206;BME280;1615;53.602;11.418;2023-04-29T08:55:46;101095.13;;;13.70;100.00
3206;BME280;1615;53.602;11.418;2023-04-29T08:58:14;101097.56;;;13.85;100.00
3206;BME280;1615;53.602;11.418;2023-04-29T09:00:41;101092.59;;;13.87;100.00
3206;BME280;1615;53.602;11.418;2023-04-29T09:03:28;101097.78;;;13.88;100.00
3206;BME280;1615;53.602;11.418;2023-04-29T09:05:55;101096.13;;;14.28;100.00
3206;BME280;1615;53.602;11.418;2023-04-29T09:08:24;101078.75;;;14.41;100.00
3206;BME280;1615;53.602;11.418;2023-04-29T09:10:51;100959.16;;;13.88;100.00
3206;BME280;1615;53.602;11.418;2023-04-29T09:13:28;101106.25;;;14.90;100.00
3206;BME280;1615;53.602;11.418;2023-04-29T09:15:54;101113.34;;;14.47;100.00
3206;BME280;1615;53.602;11.418;2023-04-29T09:18:42;101124.81;;;14.00;100.00
3206;BME280;1615;53.602;11.418;2023-04-29T09:21:17;101124.91;;;14.35;100.00
3206;BME280;1615;53.602;11.418;2023-04-29T09:23:44;101127.38;;;14.37;100.00
3206;BME280;1615;53.602;11.418;2023-04-29T09:26:10;101130.00;;;14.42;100.00
3206;BME280;1615;53.602;11.418;2023-04-29T09:28:35;101133.88;;;14.54;100.00
3206;BME280;1615;53.602;11.418;2023-04-29T09:31:01;101127.19;;;14.69;100.00
3206;BME280;1615;53.602;11.418;2023-04-29T09:33:48;101133.97;;;14.85;100.00
3206;BME280;1615;53.602;11.418;2023-04-29T09:36:34;101090.22;;;14.21;100.00
3206;BME280;1615;53.602;11.418;2023-04-29T09:38:59;101139.72;;;14.39;100.00
3206;BME280;1615;53.602;11.418;2023-04-29T09:41:24;101130.84;;;14.29;100.00
3206;BME280;1615;53.602;11.418;2023-04-29T09:44:04;101131.22;;;14.49;100.00
3206;BME280;1615;53.602;11.418;2023-04-29T09:46:32;101151.06;;;14.73;100.00
3206;BME280;1615;53.602;11.418;2023-04-29T09:48:57;101138.47;;;14.81;100.00
3206;BME280;1615;53.602;11.418;2023-04-29T09:51:23;101133.78;;;14.81;100.00
3206;BME280;1615;53.602;11.418;2023-04-29T09:53:49;101048.97;;;14.02;100.00
3206;BME280;1615;53.602;11.418;2023-04-29T09:56:14;100989.72;;;13.64;100.00
3206;BME280;1615;53.602;11.418;2023-04-29T09:58:39;101149.00;;;14.57;100.00
3206;BME280;1615;53.602;11.418;2023-04-29T10:01:06;101155.47;;;14.74;100.00
3206;BME280;1615;53.602;11.418;2023-04-29T10:03:36;101159.91;;;14.97;100.00
3206;BME280;1615;53.602;11.418;2023-04-29T10:06:04;101159.84;;;15.11;100.00
3206;BME280;1615;53.602;11.418;2023-04-29T10:08:31;101155.66;;;15.13;100.00
3206;BME280;1615;53.602;11.418;2023-04-29T10:10:59;101158.47;;;15.22;100.00
3206;BME280;1615;53.602;11.418;2023-04-29T10:13:25;101155.56;;;15.05;100.00
3206;BME280;1615;53.602;11.418;2023-04-29T10:16:26;101166.47;;;15.45;100.00
3206;BME280;1615;53.602;11.418;2023-04-29T10:18:53;101166.72;;;15.66;100.00
3206;BME280;1615;53.602;11.418;2023-04-29T10:21:29;101020.50;;;14.86;100.00
3206;BME280;1615;53.602;11.418;2023-04-29T10:23:56;101167.69;;;15.61;100.00
3206;BME280;1615;53.602;11.418;2023-04-29T10:26:25;101178.59;;;15.66;100.00
3206;BME280;1615;53.602;11.418;2023-04-29T10:28:53;101175.03;;;16.05;100.00
3206;BME280;1615;53.602;11.418;2023-04-29T10:31:20;101178.22;;;16.29;100.00
3206;BME280;1615;53.602;11.418;2023-04-29T10:33:46;101105.69;;;15.93;100.00
3206;BME280;1615;53.602;11.418;2023-04-29T10:36:13;101179.47;;;16.62;100.00
3206;BME280;1615;53.602;11.418;2023-04-29T10:38:42;101172.78;;;16.71;100.00
3206;BME280;1615;53.602;11.418;2023-04-29T10:41:26;101168.41;;;16.79;100.00
3206;BME280;1615;53.602;11.418;2023-04-29T10:43:53;101170.38;;;16.70;100.00
3206;BME280;1615;53.602;11.418;2023-04-29T10:46:21;101166.47;;;16.71;100.00
3206;BME280;1615;53.602;11.418;2023-04-29T10:48:49;101127.34;;;16.55;100.00
3206;BME280;1615;53.602;11.418;2023-04-29T10:51:44;101172.59;;;16.51;100.00
3206;BME280;1615;53.602;11.418;2023-04-29T10:54:13;101177.09;;;15.91;100.00
3206;BME280;1615;53.602;11.418;2023-04-29T10:56:50;101159.53;;;15.56;100.00
3206;BME280;1615;53.602;11.418;2023-04-29T10:59:20;101174.78;;;16.23;100.00
3206;BME280;1615;53.602;11.418;2023-04-29T11:01:51;101163.31;;;16.55;100.00
3206;BME280;1615;53.602;11.418;2023-04-29T11:04:18;101184.53;;;16.68;100.00
3206;BME280;1615;53.602;11.418;2023-04-29T11:06:46;101173.72;;;16.41;98.34
3206;BME280;1615;53.602;11.418;2023-04-29T11:14:34;101184.78;;;16.02;92.81
3206;BME280;1615;53.602;11.418;2023-04-29T11:17:07;101058.53;;;15.20;91.68
3206;BME280;1615;53.602;11.418;2023-04-29T11:19:34;101182.50;;;15.96;92.44
3206;BME280;1615;53.602;11.418;2023-04-29T11:25:02;101218.94;;;15.98;95.58
3206;BME280;1615;53.602;11.418;2023-04-29T11:27:32;101187.66;;;15.89;85.66
3206;BME280;1615;53.602;11.418;2023-04-29T11:29:58;101160.50;;;15.91;88.09
3206;BME280;1615;53.602;11.418;2023-04-29T11:32:32;101193.91;;;16.03;89.61
3206;BME280;1615;53.602;11.418;2023-04-29T11:37:32;101189.09;;;16.17;90.62
3206;BME280;1615;53.602;11.418;2023-04-29T11:40:00;101205.63;;;16.00;89.06
3206;BME280;1615;53.602;11.418;2023-04-29T11:42:26;101201.78;;;16.18;84.78
3206;BME280;1615;53.602;11.418;2023-04-29T11:44:53;101192.28;;;16.49;88.15
3206;BME280;1615;53.602;11.418;2023-04-29T11:47:19;101190.88;;;16.69;88.29
3206;BME280;1615;53.602;11.418;2023-04-29T11:49:46;101189.75;;;16.70;88.60
3206;BME280;1615;53.602;11.418;2023-04-29T11:52:11;101197.25;;;16.86;88.77
3206;BME280;1615;53.602;11.418;2023-04-29T11:54:37;101197.75;;;16.97;86.14
3206;BME280;1615;53.602;11.418;2023-04-29T11:57:03;101198.41;;;17.11;86.97
3206;BME280;1615;53.602;11.418;2023-04-29T11:59:30;101189.28;;;17.19;83.50
3206;BME280;1615;53.602;11.418;2023-04-29T12:01:57;101124.59;;;16.89;78.93
3206;BME280;1615;53.602;11.418;2023-04-29T12:04:24;101197.44;;;17.24;74.64
3206;BME280;1615;53.602;11.418;2023-04-29T12:06:52;101194.97;;;17.14;76.83
3206;BME280;1615;53.602;11.418;2023-04-29T12:09:20;101196.91;;;17.22;79.54
3206;BME280;1615;53.602;11.418;2023-04-29T12:11:47;101129.56;;;16.28;76.57
3206;BME280;1615;53.602;11.418;2023-04-29T12:14:14;101203.63;;;16.87;77.81
3206;BME280;1615;53.602;11.418;2023-04-29T12:16:40;101200.03;;;17.20;82.25
3206;BME280;1615;53.602;11.418;2023-04-29T12:19:06;101109.13;;;16.88;81.53
3206;BME280;1615;53.602;11.418;2023-04-29T12:21:34;101208.50;;;17.58;81.89
3206;BME280;1615;53.602;11.418;2023-04-29T12:24:01;101202.13;;;17.66;82.74
3206;BME280;1615;53.602;11.418;2023-04-29T12:26:28;101223.78;;;17.72;83.25
3206;BME280;1615;53.602;11.418;2023-04-29T12:28:56;101229.16;;;17.86;86.43
3206;BME280;1615;53.602;11.418;2023-04-29T12:31:22;101208.78;;;17.82;80.55
3206;BME280;1615;53.602;11.418;2023-04-29T12:33:48;101208.16;;;17.59;78.74
3206;BME280;1615;53.602;11.418;2023-04-29T12:36:18;101211.28;;;17.58;82.31
3206;BME280;1615;53.602;11.418;2023-04-29T12:38:45;101214.84;;;17.67;84.58
3206;BME280;1615;53.602;11.418;2023-04-29T12:41:11;101208.44;;;17.75;80.90
3206;BME280;1615;53.602;11.418;2023-04-29T12:43:38;101207.44;;;17.88;84.67
3206;BME280;1615;53.602;11.418;2023-04-29T12:46:06;101212.16;;;17.96;82.75
3206;BME280;1615;53.602;11.418;2023-04-29T12:48:33;101212.16;;;17.96;78.40
3206;BME280;1615;53.602;11.418;2023-04-29T12:51:00;101208.91;;;17.94;79.30
3206;BME280;1615;53.602;11.418;2023-04-29T12:53:26;101216.75;;;17.83;77.54
3206;BME280;1615;53.602;11.418;2023-04-29T12:55:53;101104.03;;;17.16;78.87
3206;BME280;1615;53.602;11.418;2023-04-29T12:58:19;101153.09;;;17.24;78.88
3206;BME280;1615;53.602;11.418;2023-04-29T13:00:44;101181.63;;;17.41;85.42
3206;BME280;1615;53.602;11.418;2023-04-29T13:03:10;101210.97;;;17.51;78.94
3206;BME280;1615;53.602;11.418;2023-04-29T13:05:35;101217.28;;;16.75;79.37
3206;BME280;1615;53.602;11.418;2023-04-29T13:08:01;101229.00;;;16.72;81.46
3206;BME280;1615;53.602;11.418;2023-04-29T13:10:26;101212.56;;;17.01;80.98
3206;BME280;1615;53.602;11.418;2023-04-29T13:12:55;101216.00;;;17.32;87.91
3206;BME280;1615;53.602;11.418;2023-04-29T13:15:20;101221.69;;;17.35;87.72